Time;durP1;ratioP1;P1;durP2;ratioP2;P2;SDS_P1;SDS_P2;PMS_P1;PMS_P2;Temp;Humidity;BMP_temperature;BMP_pressure;BME280_temperature;BME280_humidity;BME280_pressure;Samples;Min_cycle;Max_cycle;Signal;HPM_P1;HPM_P2
2023/03/23 00:01:49;;;;;;;8.73;4.90;;;19.90;66.60;;;;;;4900332;29;20052;-80
2023/03/23 00:04:16;;;;;;;9.25;6.47;;;19.80;66.60;;;;;;4903545;29;20701;-80
2023/03/23 00:06:45;;;;;;;10.65;5.05;;;19.80;66.70;;;;;;4919667;29;20052;-80
2023/03/23 00:09:13;;;;;;;9.00;5.45;;;19.80;66.70;;;;;;4901652;29;20087;-80
2023/03/23 00:11:41;;;;;;;9.80;5.10;;;19.80;66.80;;;;;;4916072;29;20048;-76
2023/03/23 00:14:12;;;;;;;9.15;6.13;;;19.80;66.80;;;;;;4891572;29;20055;-76
2023/03/23 00:16:42;;;;;;;9.45;4.32;;;19.70;66.80;;;;;;4897122;29;20509;-69
2023/03/23 00:19:12;;;;;;;8.48;5.70;;;19.70;66.90;;;;;;4911903;29;20052;-69
2023/03/23 00:21:41;;;;;;;8.13;4.80;;;19.70;66.90;;;;;;4918783;29;20450;-69
2023/03/23 00:24:10;;;;;;;8.30;4.43;;;19.70;67.10;;;;;;4919066;29;20055;-69
2023/03/23 00:26:40;;;;;;;10.20;6.05;;;19.60;67.00;;;;;;4917612;29;20059;-69
2023/03/23 00:29:14;;;;;;;9.93;6.38;;;19.60;67.00;;;;;;4916399;29;20099;-69
2023/03/23 00:31:46;;;;;;;8.18;6.10;;;19.60;67.00;;;;;;4915127;29;20481;-69
2023/03/23 00:34:19;;;;;;;7.55;4.43;;;19.60;67.10;;;;;;4934811;29;20056;-68
2023/03/23 00:36:47;;;;;;;8.20;4.40;;;19.60;67.10;;;;;;4918584;29;20098;-69
2023/03/23 00:39:15;;;;;;;8.63;5.75;;;19.50;67.00;;;;;;4918893;29;20115;-69
2023/03/23 00:41:43;;;;;;;10.27;5.28;;;19.50;67.10;;;;;;4935421;29;20066;-69
2023/03/23 00:44:16;;;;;;;7.53;4.35;;;19.50;67.00;;;;;;4918683;29;20056;-69
2023/03/23 00:46:44;;;;;;;7.60;4.90;;;19.40;67.10;;;;;;4909963;29;20056;-69
2023/03/23 00:49:13;;;;;;;8.65;5.97;;;19.40;67.10;;;;;;4918247;29;20060;-69
2023/03/23 00:51:40;;;;;;;7.82;5.32;;;19.40;67.10;;;;;;4935443;29;20142;-69
2023/03/23 00:54:07;;;;;;;7.93;4.38;;;19.40;67.10;;;;;;4917325;29;20098;-69
2023/03/23 00:56:34;;;;;;;7.00;4.45;;;19.40;67.20;;;;;;4935492;29;20048;-69
2023/03/23 00:59:01;;;;;;;8.60;4.30;;;19.40;67.20;;;;;;4913232;29;20060;-69
2023/03/23 01:01:31;;;;;;;7.45;4.82;;;19.30;67.10;;;;;;4933686;29;20081;-69
2023/03/23 01:04:03;;;;;;;7.95;5.03;;;19.40;67.20;;;;;;4935115;29;20055;-69
2023/03/23 01:06:31;;;;;;;7.53;3.60;;;19.30;67.20;;;;;;4934020;29;20090;-69
2023/03/23 01:09:00;;;;;;;6.07;3.65;;;19.30;67.20;;;;;;4934013;29;20106;-69
2023/03/23 01:11:27;;;;;;;6.07;3.85;;;19.30;67.20;;;;;;4934031;29;20055;-69
2023/03/23 01:13:54;;;;;;;7.32;4.88;;;19.30;67.20;;;;;;4930001;29;20055;-69
2023/03/23 01:16:21;;;;;;;7.70;5.22;;;19.30;67.20;;;;;;4935057;29;20066;-69
2023/03/23 01:18:49;;;;;;;8.60;5.53;;;19.30;67.30;;;;;;4933949;29;20063;-69
2023/03/23 01:21:21;;;;;;;6.68;4.57;;;19.30;67.10;;;;;;4932613;29;20052;-69
2023/03/23 01:23:49;;;;;;;6.35;4.40;;;19.30;67.00;;;;;;4933751;29;20139;-69
2023/03/23 01:26:18;;;;;;;7.55;4.60;;;19.40;67.00;;;;;;4934922;29;20124;-69
2023/03/23 01:28:45;;;;;;;7.63;4.38;;;19.40;66.90;;;;;;4931313;29;20070;-69
2023/03/23 01:31:14;;;;;;;6.47;3.60;;;19.50;66.90;;;;;;4934559;29;20067;-69
2023/03/23 01:33:41;;;;;;;8.00;4.32;;;19.60;66.80;;;;;;4934602;29;20048;-69
2023/03/23 01:36:12;;;;;;;6.63;3.70;;;19.60;66.70;;;;;;4934608;29;20052;-69
2023/03/23 01:38:40;;;;;;;6.57;3.75;;;19.70;66.60;;;;;;4934159;29;20485;-69
2023/03/23 01:41:07;;;;;;;7.13;4.63;;;19.70;66.50;;;;;;4933305;29;20059;-69
2023/03/23 01:43:34;;;;;;;5.50;3.35;;;19.80;66.30;;;;;;4931699;29;20052;-69
2023/03/23 01:46:01;;;;;;;6.15;3.25;;;19.80;66.20;;;;;;4916885;29;20055;-69
2023/03/23 01:48:33;;;;;;;6.47;4.20;;;20.00;66.20;;;;;;4914346;29;20059;-69
2023/03/23 01:51:05;;;;;;;6.00;4.85;;;20.00;66.00;;;;;;4915274;29;20095;-69
2023/03/23 01:53:38;;;;;;;5.70;3.75;;;20.00;65.90;;;;;;4915196;29;20521;-69
2023/03/23 01:56:08;;;;;;;6.47;3.47;;;20.10;65.90;;;;;;4914170;29;20087;-69
2023/03/23 01:58:35;;;;;;;;;;;20.10;65.90;;;;;;4919960;29;20122;-69
2023/03/23 02:01:06;;;;;;;5.40;3.08;;;20.10;66.00;;;;;;4934284;29;19964;-69
2023/03/23 02:03:34;;;;;;;6.40;3.13;;;20.10;65.80;;;;;;4916929;29;20055;-69
2023/03/23 02:06:02;;;;;;;6.50;3.28;;;20.00;65.80;;;;;;4934124;29;20382;-69
2023/03/23 02:08:32;;;;;;;5.43;3.05;;;20.10;66.00;;;;;;4934184;29;20054;-69
2023/03/23 02:11:00;;;;;;;6.78;4.40;;;20.00;66.00;;;;;;4933491;29;20044;-69
2023/03/23 02:13:29;;;;;;;6.53;4.47;;;20.00;66.00;;;;;;4913622;29;20087;-69
2023/03/23 02:16:04;;;;;;;6.63;3.10;;;20.00;66.00;;;;;;4933783;29;20051;-69
2023/03/23 02:18:46;;;;;;;6.30;3.30;;;20.00;66.00;;;;;;4918000;29;20045;-69
2023/03/23 02:21:32;;;;;;;;;;;20.00;66.10;;;;;;4898794;29;20057;-69
2023/03/23 02:24:41;;;;;;;5.38;2.72;;;19.90;66.00;;;;;;4909106;29;19938;-69
2023/03/23 02:27:13;;;;;;;5.07;3.10;;;19.90;66.10;;;;;;4872950;29;20056;-69
2023/03/23 02:29:55;;;;;;;6.53;3.72;;;19.90;66.10;;;;;;4889727;29;20057;-69
2023/03/23 02:32:42;;;;;;;6.22;4.30;;;19.90;66.20;;;;;;4878899;29;20059;-69
2023/03/23 02:35:15;;;;;;;6.43;3.17;;;19.80;66.20;;;;;;4895871;29;20462;-69
2023/03/23 02:37:48;;;;;;;5.70;3.00;;;19.80;66.20;;;;;;4878829;29;20064;-69
2023/03/23 02:40:19;;;;;;;6.03;3.60;;;19.80;66.30;;;;;;4879121;29;20056;-69
2023/03/23 02:42:51;;;;;;;5.68;3.83;;;19.80;66.40;;;;;;4905454;29;20123;-69
2023/03/23 02:45:20;;;;;;;5.20;2.60;;;19.80;66.40;;;;;;4897391;29;20059;-69
2023/03/23 02:47:51;;;;;;;7.32;3.70;;;19.70;66.40;;;;;;4914786;29;20056;-69
2023/03/23 02:50:23;;;;;;;5.72;4.03;;;19.70;66.50;;;;;;4896824;29;20493;-69
2023/03/23 02:52:51;;;;;;;5.10;2.83;;;19.70;66.50;;;;;;4914198;29;20394;-69
2023/03/23 02:55:20;;;;;;;4.68;2.55;;;19.70;66.60;;;;;;4897428;29;20056;-69
2023/03/23 02:57:48;;;;;;;5.65;2.72;;;19.70;66.50;;;;;;4895432;29;20056;-69
2023/03/23 03:00:18;;;;;;;6.00;3.72;;;19.60;66.50;;;;;;4895464;29;20064;-69
2023/03/23 03:02:52;;;;;;;5.85;3.85;;;19.60;66.60;;;;;;4914137;29;20679;-69
2023/03/23 03:05:29;;;;;;;4.82;2.47;;;19.60;66.60;;;;;;4914286;29;20052;-69
2023/03/23 03:08:02;;;;;;;5.03;2.30;;;19.50;66.60;;;;;;4914254;29;20473;-69
2023/03/23 03:10:37;;;;;;;4.82;2.58;;;19.50;66.60;;;;;;4913096;29;20060;-69
2023/03/23 03:13:08;;;;;;;6.07;2.42;;;19.50;66.60;;;;;;4920373;29;20067;-69
2023/03/23 03:15:40;;;;;;;5.45;3.53;;;19.50;66.70;;;;;;4933475;29;20055;-69
2023/03/23 03:18:14;;;;;;;4.97;3.38;;;19.40;66.60;;;;;;4932222;29;20059;-69
2023/03/23 03:20:47;;;;;;;4.63;3.33;;;19.50;66.70;;;;;;4932056;29;20591;-69
2023/03/23 03:23:17;;;;;;;5.60;3.45;;;19.40;66.70;;;;;;4932601;29;20056;-69
2023/03/23 03:25:47;;;;;;;6.57;4.03;;;19.40;67.20;;;;;;4918185;29;20052;-69
2023/03/23 03:28:21;;;;;;;4.65;3.47;;;19.40;66.70;;;;;;4920853;29;20052;-69
2023/03/23 03:30:51;;;;;;;5.95;2.55;;;19.40;66.70;;;;;;4912569;29;20052;-69
2023/03/23 03:33:20;;;;;;;4.53;2.13;;;19.30;66.70;;;;;;4916187;29;20577;-69
2023/03/23 03:35:49;;;;;;;6.22;3.25;;;19.30;66.70;;;;;;4914332;29;20140;-68
2023/03/23 03:38:16;;;;;;;5.15;2.67;;;19.30;67.40;;;;;;4904919;29;20108;-69
2023/03/23 03:40:43;;;;;;;4.07;2.38;;;19.30;66.80;;;;;;4899041;29;20053;-69
2023/03/23 03:43:10;;;;;;;4.53;2.33;;;19.30;66.80;;;;;;4925923;29;20064;-69
2023/03/23 03:45:37;;;;;;;3.88;1.98;;;19.30;66.80;;;;;;4935693;29;20134;-69
2023/03/23 03:48:05;;;;;;;4.85;2.20;;;19.30;66.80;;;;;;4925228;29;20059;-69
2023/03/23 03:50:32;;;;;;;4.53;3.22;;;19.30;66.70;;;;;;4916362;29;20052;-69
2023/03/23 03:53:00;;;;;;;4.05;2.30;;;19.40;66.70;;;;;;4917392;29;20051;-69
2023/03/23 03:55:28;;;;;;;4.88;2.20;;;19.40;66.60;;;;;;4916314;29;20111;-69
2023/03/23 03:57:55;;;;;;;4.70;2.03;;;19.50;66.60;;;;;;4928611;29;20544;-69
2023/03/23 04:00:23;;;;;;;3.88;2.22;;;19.50;66.50;;;;;;4935854;29;20131;-69
2023/03/23 04:02:53;;;;;;;4.15;2.92;;;19.60;66.40;;;;;;4936286;29;20055;-69
2023/03/23 04:05:22;;;;;;;4.40;2.83;;;19.60;66.30;;;;;;4910562;29;20048;-69
2023/03/23 04:07:51;;;;;;;4.80;1.98;;;19.70;66.20;;;;;;4917205;29;20048;-69
2023/03/23 04:10:22;;;;;;;4.25;1.80;;;19.70;66.00;;;;;;4900397;29;20134;-69
2023/03/23 04:12:49;;;;;;;3.13;1.60;;;19.80;65.90;;;;;;4928605;29;20155;-69
2023/03/23 04:15:16;;;;;;;3.88;2.00;;;19.90;65.80;;;;;;4936396;29;20047;-69
2023/03/23 04:17:43;;;;;;;5.20;1.90;;;19.90;65.70;;;;;;4919369;29;20059;-69
2023/03/23 04:20:16;;;;;;;4.15;2.15;;;20.00;65.60;;;;;;4934765;29;20060;-69
2023/03/23 04:22:44;;;;;;;3.50;2.10;;;20.10;65.50;;;;;;4935096;29;20056;-69
2023/03/23 04:25:14;;;;;;;4.15;2.75;;;20.10;65.50;;;;;;4936056;29;20099;-69
2023/03/23 04:27:45;;;;;;;;;;;20.10;65.40;;;;;;4936210;29;20509;-69
2023/03/23 04:30:14;;;;;;;3.70;2.80;;;20.10;65.50;;;;;;4936178;29;19966;-69
2023/03/23 04:32:41;;;;;;;3.47;1.60;;;20.10;65.50;;;;;;4935857;29;20107;-69
2023/03/23 04:35:11;;;;;;;4.30;2.20;;;20.10;65.50;;;;;;4916764;29;20060;-69
2023/03/23 04:37:38;;;;;;;5.32;3.08;;;20.10;65.50;;;;;;4916922;29;20084;-69
2023/03/23 04:40:11;;;;;;;4.50;3.03;;;20.10;65.50;;;;;;4916470;29;20059;-69
2023/03/23 04:42:38;;;;;;;4.40;2.55;;;20.00;65.50;;;;;;4928672;29;20048;-69
2023/03/23 04:45:09;;;;;;;5.35;2.80;;;20.00;65.60;;;;;;4902416;29;20060;-69
2023/03/23 04:47:39;;;;;;;3.58;1.85;;;20.00;65.60;;;;;;4895887;29;20052;-69
2023/03/23 04:50:09;;;;;;;5.00;1.92;;;19.90;65.60;;;;;;4905943;29;20086;-69
2023/03/23 04:52:37;;;;;;;3.55;2.03;;;19.90;65.60;;;;;;4934801;29;20155;-69
2023/03/23 04:55:06;;;;;;;3.67;2.13;;;19.90;65.70;;;;;;4935443;29;20050;-69
2023/03/23 04:57:34;;;;;;;4.07;2.45;;;19.90;65.70;;;;;;4908874;29;20056;-69
2023/03/23 05:00:08;;;;;;;5.13;2.97;;;19.90;65.80;;;;;;4912446;29;20064;-69
2023/03/23 05:02:39;;;;;;;4.55;2.78;;;19.90;65.80;;;;;;4899939;29;20090;-69
2023/03/23 05:05:06;;;;;;;3.53;1.83;;;19.80;65.80;;;;;;4904598;29;20481;-69
2023/03/23 05:07:33;;;;;;;4.93;2.20;;;19.80;65.90;;;;;;4935207;29;20052;-69
2023/03/23 05:10:00;;;;;;;3.78;2.58;;;19.80;65.90;;;;;;4918123;29;20051;-69
2023/03/23 05:12:27;;;;;;;3.55;2.33;;;19.80;65.90;;;;;;4934824;29;20047;-69
2023/03/23 05:14:54;;;;;;;4.38;2.72;;;19.70;65.90;;;;;;4934928;29;20094;-69
2023/03/23 05:17:23;;;;;;;2.88;1.50;;;19.70;65.90;;;;;;4918051;29;20837;-69
2023/03/23 05:19:53;;;;;;;4.50;1.83;;;19.70;66.00;;;;;;4914561;29;20044;-69
2023/03/23 05:22:20;;;;;;;;;;;19.70;66.10;;;;;;4918170;29;20052;-69
2023/03/23 05:24:51;;;;;;;4.05;1.67;;;19.60;65.90;;;;;;4917718;29;19927;-69
2023/03/23 05:27:18;;;;;;;3.38;2.20;;;19.60;66.00;;;;;;4916612;29;20083;-69
2023/03/23 05:29:48;;;;;;;3.70;2.55;;;19.60;66.10;;;;;;4934567;29;20052;-69
2023/03/23 05:32:16;;;;;;;2.97;1.38;;;19.60;66.70;;;;;;4917890;29;20130;-69
2023/03/23 05:34:43;;;;;;;3.65;2.45;;;19.50;66.10;;;;;;4934955;29;20055;-69
2023/03/23 05:37:13;;;;;;;2.60;1.10;;;19.50;66.10;;;;;;4934653;29;20059;-69
2023/03/23 05:39:41;;;;;;;2.72;1.88;;;19.50;66.20;;;;;;4905176;29;20524;-69
2023/03/23 05:42:08;;;;;;;3.17;2.00;;;19.50;66.20;;;;;;4906609;29;20666;-69
2023/03/23 05:44:35;;;;;;;2.88;1.40;;;19.40;66.20;;;;;;4917227;29;20067;-69
2023/03/23 05:47:04;;;;;;;3.60;2.08;;;19.40;66.20;;;;;;4934410;29;20048;-69
2023/03/23 05:49:31;;;;;;;3.63;2.63;;;19.40;66.30;;;;;;4934698;29;20051;-68
2023/03/23 05:51:58;;;;;;;3.70;2.10;;;19.40;66.30;;;;;;4934214;29;20610;-69
2023/03/23 05:54:26;;;;;;;3.88;1.83;;;19.30;66.20;;;;;;4917433;29;20059;-69
2023/03/23 05:56:54;;;;;;;2.60;1.23;;;19.30;66.30;;;;;;4932857;29;20973;-69
2023/03/23 05:59:21;;;;;;;3.58;2.28;;;19.30;66.30;;;;;;4929275;29;20544;-69
2023/03/23 06:01:48;;;;;;;3.05;1.30;;;19.30;66.40;;;;;;4922809;29;20103;-69
2023/03/23 06:04:15;;;;;;;3.38;2.30;;;19.20;66.30;;;;;;4913635;29;20056;-69
2023/03/23 06:06:43;;;;;;;3.83;2.08;;;19.30;66.40;;;;;;4912620;29;20048;-69
2023/03/23 06:09:11;;;;;;;5.13;1.25;;;19.30;66.40;;;;;;4906320;29;20065;-69
2023/03/23 06:11:39;;;;;;;2.53;1.05;;;19.30;66.40;;;;;;4918774;29;20055;-69
2023/03/23 06:14:06;;;;;;;2.53;1.00;;;19.30;66.40;;;;;;4937125;29;20141;-69
2023/03/23 06:16:33;;;;;;;3.38;1.85;;;19.30;66.30;;;;;;4915092;29;20048;-69
2023/03/23 06:19:01;;;;;;;3.17;1.67;;;19.30;66.30;;;;;;4914936;29;20127;-69
2023/03/23 06:21:28;;;;;;;4.10;1.48;;;19.40;66.30;;;;;;4923511;29;20048;-69
2023/03/23 06:23:55;;;;;;;2.53;0.95;;;19.40;66.20;;;;;;4926647;29;20052;-69
2023/03/23 06:26:32;;;;;;;3.17;1.92;;;19.50;66.10;;;;;;4913711;29;20603;-69
2023/03/23 06:29:00;;;;;;;2.55;1.58;;;19.50;66.10;;;;;;4911768;29;20056;-69
2023/03/23 06:31:28;;;;;;;3.92;0.95;;;19.60;65.90;;;;;;4914789;29;20519;-70
2023/03/23 06:33:56;;;;;;;3.67;1.60;;;19.70;65.90;;;;;;4913804;29;20071;-69
2023/03/23 06:36:23;;;;;;;2.67;1.30;;;19.70;65.70;;;;;;4916708;29;20052;-75
2023/03/23 06:38:50;;;;;;;3.42;1.80;;;19.80;65.80;;;;;;4900925;29;20127;-73
2023/03/23 06:41:17;;;;;;;3.05;0.80;;;19.90;65.80;;;;;;4894541;29;20048;-74
2023/03/23 06:43:46;;;;;;;2.80;1.40;;;19.90;66.40;;;;;;4928037;29;20090;-74
2023/03/23 06:46:14;;;;;;;4.07;1.73;;;20.00;65.80;;;;;;4930506;29;20052;-75
2023/03/23 06:48:41;;;;;;;3.30;1.30;;;20.10;65.70;;;;;;4922119;29;20056;-74
2023/03/23 06:51:08;;;;;;;3.65;1.65;;;20.10;65.70;;;;;;4913158;29;20095;-76
2023/03/23 06:53:35;;;;;;;4.70;1.70;;;20.10;65.70;;;;;;4924409;29;20110;-70
2023/03/23 06:56:02;;;;;;;2.35;0.93;;;20.10;65.70;;;;;;4922126;29;20053;-69
2023/03/23 06:58:29;;;;;;;2.97;1.48;;;20.10;65.80;;;;;;4902999;29;20070;-69
2023/03/23 07:00:58;;;;;;;3.10;0.50;;;20.10;65.80;;;;;;4913985;29;20066;-70
2023/03/23 07:03:27;;;;;;;3.08;1.25;;;20.10;65.80;;;;;;4914307;29;20112;-69
2023/03/23 07:05:54;;;;;;;;;;;20.10;65.80;;;;;;4897020;29;20646;-69
2023/03/23 07:08:21;;;;;;;4.07;1.48;;;20.10;65.90;;;;;;4892706;29;19923;-69
2023/03/23 07:10:52;;;;;;;3.03;0.65;;;20.10;65.80;;;;;;4917191;29;20428;-70
2023/03/23 07:13:18;;;;;;;3.47;0.70;;;20.10;65.80;;;;;;4916142;29;20060;-69
2023/03/23 07:15:45;;;;;;;2.10;0.50;;;20.00;65.80;;;;;;4933272;29;20043;-69
2023/03/23 07:18:13;;;;;;;2.90;1.50;;;20.00;65.90;;;;;;4916094;29;20094;-69
2023/03/23 07:20:41;;;;;;;4.18;1.67;;;20.00;65.90;;;;;;4932923;29;20099;-69
2023/03/23 07:23:08;;;;;;;4.70;1.10;;;20.00;65.90;;;;;;4933105;29;20119;-69
2023/03/23 07:25:36;;;;;;;3.50;0.98;;;20.00;65.90;;;;;;4927955;29;20077;-69
2023/03/23 07:28:04;;;;;;;4.93;1.60;;;19.90;65.90;;;;;;4933208;29;20497;-69
2023/03/23 07:30:31;;;;;;;3.00;1.40;;;19.90;66.50;;;;;;4916232;29;20060;-76
2023/03/23 07:32:58;;;;;;;3.33;0.98;;;19.90;66.00;;;;;;4930985;29;20048;-72
2023/03/23 07:35:26;;;;;;;5.20;2.33;;;19.90;66.00;;;;;;4931235;29;20107;-70
2023/03/23 07:37:54;;;;;;;5.38;1.60;;;19.80;66.10;;;;;;4916099;29;20055;-70
2023/03/23 07:40:21;;;;;;;3.30;1.65;;;19.80;66.10;;;;;;4897271;29;20092;-70
2023/03/23 07:42:54;;;;;;;2.90;0.57;;;19.80;66.10;;;;;;4897186;29;20063;-71
2023/03/23 07:45:22;;;;;;;4.50;1.15;;;19.80;66.20;;;;;;4914026;29;20122;-70
2023/03/23 07:47:49;;;;;;;3.72;0.80;;;19.80;66.20;;;;;;4897306;29;20063;-70
2023/03/23 07:50:17;;;;;;;4.03;1.63;;;19.70;66.20;;;;;;4926670;29;20062;-70
2023/03/23 07:52:45;;;;;;;3.83;1.50;;;19.70;66.10;;;;;;4914050;29;20481;-70
2023/03/23 07:55:17;;;;;;;4.40;1.42;;;19.80;66.80;;;;;;4916129;29;20098;-70
2023/03/23 07:57:44;;;;;;;4.40;1.63;;;19.80;66.20;;;;;;4915935;29;20067;-70
2023/03/23 08:00:15;;;;;;;3.63;1.83;;;19.70;66.10;;;;;;4932795;29;20063;-70
2023/03/23 08:02:42;;;;;;;4.97;1.00;;;19.80;66.10;;;;;;4915714;29;20079;-71
2023/03/23 08:05:10;;;;;;;5.10;0.70;;;19.80;66.10;;;;;;4928776;29;20159;-70
2023/03/23 08:07:37;;;;;;;5.40;1.23;;;19.80;66.20;;;;;;4932964;29;20135;-70
2023/03/23 08:10:04;;;;;;;5.38;1.40;;;19.70;66.10;;;;;;4934804;29;20135;-70
2023/03/23 08:12:33;;;;;;;3.50;1.17;;;19.70;66.10;;;;;;4935763;29;20059;-70
2023/03/23 08:15:00;;;;;;;3.25;0.68;;;19.70;66.10;;;;;;4936423;29;20063;-70
2023/03/23 08:17:27;;;;;;;2.75;1.00;;;19.70;66.20;;;;;;4936047;29;20492;-70
2023/03/23 08:19:54;;;;;;;4.38;1.15;;;19.70;66.10;;;;;;4917116;29;20051;-70
2023/03/23 08:22:21;;;;;;;4.13;1.05;;;19.70;66.20;;;;;;4919219;29;20496;-70
2023/03/23 08:24:48;;;;;;;3.05;1.33;;;19.70;66.20;;;;;;4918825;29;20625;-70
2023/03/23 08:27:15;;;;;;;4.38;0.55;;;19.70;66.80;;;;;;4919135;29;20484;-71
2023/03/23 08:29:45;;;;;;;4.00;0.88;;;19.70;66.20;;;;;;4936107;29;20054;-70
2023/03/23 08:32:12;;;;;;;3.08;0.55;;;19.70;66.20;;;;;;4931438;29;20052;-70
2023/03/23 08:34:39;;;;;;;3.55;0.68;;;19.70;66.80;;;;;;4916940;29;20067;-71
2023/03/23 08:37:06;;;;;;;2.53;0.50;;;19.70;66.20;;;;;;4917044;29;20052;-70
2023/03/23 08:39:33;;;;;;;2.72;0.65;;;19.70;66.80;;;;;;4900036;29;20485;-70
2023/03/23 08:42:00;;;;;;;4.85;1.35;;;19.60;66.20;;;;;;4916807;29;20051;-70
2023/03/23 08:44:28;;;;;;;5.13;0.73;;;19.60;66.20;;;;;;4916341;29;20059;-71
2023/03/23 08:46:56;;;;;;;5.28;1.83;;;19.60;66.20;;;;;;4912133;29;20052;-70
2023/03/23 08:49:24;;;;;;;4.18;1.25;;;19.60;66.20;;;;;;4932133;29;20092;-70
2023/03/23 08:51:50;;;;;;;3.70;1.25;;;19.60;66.20;;;;;;4918466;29;20058;-70
2023/03/23 08:54:17;;;;;;;4.88;1.25;;;19.60;66.20;;;;;;4935371;29;20063;-70
2023/03/23 08:56:44;;;;;;;4.60;1.75;;;19.60;66.80;;;;;;4918480;29;20116;-70
2023/03/23 08:59:11;;;;;;;3.08;0.50;;;19.60;66.20;;;;;;4933518;29;20055;-70
2023/03/23 09:01:38;;;;;;;3.65;1.52;;;19.60;66.20;;;;;;4935163;29;20100;-70
2023/03/23 09:04:08;;;;;;;4.82;1.58;;;19.60;66.20;;;;;;4935276;29;20051;-70
2023/03/23 09:06:36;;;;;;;6.38;1.35;;;19.60;66.20;;;;;;4917876;29;20059;-70
2023/03/23 09:09:06;;;;;;;5.20;1.30;;;19.60;66.20;;;;;;4935214;29;20091;-70
2023/03/23 09:11:33;;;;;;;5.45;1.13;;;19.60;66.10;;;;;;4917992;29;20055;-70
2023/03/23 09:14:00;;;;;;;4.88;1.50;;;19.60;66.80;;;;;;4931027;29;20119;-70
2023/03/23 09:16:27;;;;;;;3.10;0.75;;;19.60;66.10;;;;;;4935145;29;20522;-71
2023/03/23 09:18:55;;;;;;;4.90;1.38;;;19.60;66.10;;;;;;4914503;29;20051;-70
2023/03/23 09:21:23;;;;;;;4.80;0.77;;;19.60;66.10;;;;;;4917705;29;20047;-70
2023/03/23 09:23:50;;;;;;;4.10;1.17;;;19.70;66.10;;;;;;4935087;29;20047;-70
2023/03/23 09:26:17;;;;;;;3.85;0.60;;;19.60;66.10;;;;;;4935112;29;20052;-70
2023/03/23 09:28:45;;;;;;;3.55;0.80;;;19.60;66.10;;;;;;4934548;29;20394;-70
2023/03/23 09:31:12;;;;;;;4.65;1.17;;;19.60;66.10;;;;;;4934928;29;20134;-70
2023/03/23 09:33:40;;;;;;;4.43;0.60;;;19.70;66.20;;;;;;4905856;29;20053;-70
2023/03/23 09:36:12;;;;;;;5.35;1.02;;;19.60;66.10;;;;;;4895828;29;20451;-70
2023/03/23 09:38:41;;;;;;;5.25;0.80;;;19.70;66.10;;;;;;4897224;29;20056;-71
2023/03/23 09:41:31;;;;;;;3.70;0.55;;;19.70;66.00;;;;;;4918455;29;20074;-70
2023/03/23 09:44:06;;;;;;;3.75;1.00;;;19.70;66.00;;;;;;4934432;29;20118;-70
2023/03/23 09:46:46;;;;;;;5.13;0.77;;;19.70;65.90;;;;;;4934650;29;20058;-70
2023/03/23 09:49:16;;;;;;;4.80;1.00;;;19.80;66.50;;;;;;4927540;29;20111;-70
2023/03/23 09:51:47;;;;;;;3.90;0.80;;;19.80;65.90;;;;;;4934662;29;20048;-70
2023/03/23 09:54:22;;;;;;;4.32;1.25;;;19.80;65.90;;;;;;4925751;29;20074;-70
2023/03/23 09:56:51;;;;;;;4.63;0.90;;;19.80;66.00;;;;;;4932319;29;20095;-70
2023/03/23 09:59:24;;;;;;;5.85;0.80;;;19.80;66.00;;;;;;4934368;29;20470;-70
2023/03/23 10:01:53;;;;;;;4.25;1.40;;;19.80;65.90;;;;;;4929423;29;20067;-70
2023/03/23 10:04:34;;;;;;;4.68;1.42;;;19.70;66.50;;;;;;4933955;29;20508;-71
2023/03/23 10:07:10;;;;;;;3.53;0.70;;;19.70;66.00;;;;;;4929741;29;20056;-70
2023/03/23 10:09:38;;;;;;;5.60;1.23;;;19.80;66.00;;;;;;4929919;29;20059;-70
2023/03/23 10:12:16;;;;;;;4.63;1.60;;;19.70;66.00;;;;;;4932718;29;20806;-70
2023/03/23 10:15:12;;;;;;;4.65;0.73;;;19.70;66.00;;;;;;4934233;29;20048;-70
2023/03/23 10:17:46;;;;;;;3.85;0.93;;;19.70;66.00;;;;;;4929442;29;20059;-70
2023/03/23 10:20:28;;;;;;;4.35;1.58;;;19.70;66.00;;;;;;4930688;29;20063;-70
2023/03/23 10:23:01;;;;;;;4.18;0.55;;;19.70;66.00;;;;;;4933785;29;20094;-70
2023/03/23 10:25:32;;;;;;;5.15;0.93;;;19.70;66.00;;;;;;4932267;29;20057;-70
2023/03/23 10:28:05;;;;;;;4.72;0.77;;;19.70;66.00;;;;;;4933898;29;20044;-70
2023/03/23 10:30:35;;;;;;;4.95;0.60;;;19.70;66.00;;;;;;4932719;29;20444;-70
2023/03/23 10:33:06;;;;;;;4.75;0.68;;;19.70;66.60;;;;;;4913779;29;20060;-70
2023/03/23 10:35:37;;;;;;;5.70;0.88;;;19.70;65.90;;;;;;4915249;29;20420;-70
2023/03/23 10:38:10;;;;;;;3.92;0.98;;;19.80;65.90;;;;;;4933467;29;20054;-70
2023/03/23 10:40:47;;;;;;;3.88;1.40;;;19.80;65.90;;;;;;4922862;29;20157;-70
2023/03/23 10:43:15;;;;;;;3.75;1.15;;;19.90;65.90;;;;;;4933460;29;20052;-70
2023/03/23 10:45:45;;;;;;;3.75;1.17;;;19.80;65.80;;;;;;4933746;29;20059;-70
2023/03/23 10:48:19;;;;;;;3.50;1.42;;;19.90;65.80;;;;;;4933372;29;20062;-70
2023/03/23 10:50:51;;;;;;;5.38;0.85;;;19.90;65.70;;;;;;4931837;29;20398;-70
2023/03/23 10:53:23;;;;;;;4.43;0.57;;;20.00;65.70;;;;;;4933345;29;20499;-70
2023/03/23 10:55:52;;;;;;;5.35;1.08;;;20.00;65.70;;;;;;4928349;29;20051;-70
2023/03/23 10:58:23;;;;;;;;;;;20.10;65.60;;;;;;4934117;29;20055;-70
2023/03/23 11:00:50;;;;;;;3.53;0.93;;;20.10;65.60;;;;;;4929652;29;20363;-70
2023/03/23 11:03:29;;;;;;;4.05;1.27;;;20.10;65.40;;;;;;4926155;29;20059;-71
2023/03/23 11:05:58;;;;;;;4.57;1.20;;;20.20;65.50;;;;;;4932186;29;20095;-70
2023/03/23 11:08:29;;;;;;;5.50;1.90;;;20.20;65.40;;;;;;4933437;29;20079;-71
2023/03/23 11:10:59;;;;;;;5.80;0.93;;;20.20;65.40;;;;;;4930018;29;20509;-70
2023/03/23 11:13:31;;;;;;;5.13;0.90;;;20.30;65.40;;;;;;4933338;29;20056;-70
2023/03/23 11:15:58;;;;;;;5.72;1.60;;;20.30;65.40;;;;;;4931923;29;20059;-70
2023/03/23 11:18:29;;;;;;;3.78;1.35;;;20.30;65.30;;;;;;4933307;29;20052;-70
2023/03/23 11:20:58;;;;;;;4.78;1.05;;;20.30;65.30;;;;;;4932217;29;20055;-70
2023/03/23 11:23:28;;;;;;;5.40;1.10;;;20.40;65.30;;;;;;4932155;29;20055;-70
2023/03/23 11:26:04;;;;;;;4.90;0.93;;;20.40;65.20;;;;;;4930303;29;20432;-70
2023/03/23 11:28:34;;;;;;;5.68;1.42;;;20.40;65.20;;;;;;4928599;29;20051;-71
2023/03/23 11:31:04;;;;;;;7.25;1.67;;;20.50;65.20;;;;;;4929265;29;20135;-70
2023/03/23 11:33:36;;;;;;;4.50;1.25;;;20.50;65.20;;;;;;4913081;29;20056;-70
2023/03/23 11:36:03;;;;;;;3.97;1.48;;;20.50;65.20;;;;;;4920345;29;20497;-70
2023/03/23 11:38:31;;;;;;;6.28;1.38;;;20.50;65.20;;;;;;4932128;29;20063;-70
2023/03/23 11:41:01;;;;;;;7.10;1.48;;;20.50;65.20;;;;;;4933273;29;20060;-70
2023/03/23 11:43:28;;;;;;;4.68;1.40;;;20.50;65.80;;;;;;4931523;29;20056;-70
2023/03/23 11:46:03;;;;;;;4.53;1.65;;;20.50;65.20;;;;;;4935267;29;20063;-70
2023/03/23 11:48:39;;;;;;;5.97;1.58;;;20.50;65.20;;;;;;4936506;29;20066;-70
2023/03/23 11:51:13;;;;;;;3.70;1.15;;;20.50;65.30;;;;;;4933283;29;20126;-70
2023/03/23 11:53:48;;;;;;;4.38;1.38;;;20.50;65.20;;;;;;4936315;29;20064;-70
2023/03/23 11:56:25;;;;;;;4.75;0.98;;;20.60;65.30;;;;;;4933997;29;20059;-70
2023/03/23 11:58:53;;;;;;;4.70;1.00;;;20.50;65.30;;;;;;4936772;29;20146;-70
2023/03/23 12:01:31;;;;;;;5.10;1.52;;;20.50;65.20;;;;;;4936100;29;20087;-70
2023/03/23 12:04:11;;;;;;;5.05;0.77;;;20.60;65.30;;;;;;4902634;29;20084;-70
2023/03/23 12:06:47;;;;;;;5.07;1.27;;;20.60;65.30;;;;;;4917192;29;20087;-70
2023/03/23 12:09:31;;;;;;;3.33;1.27;;;20.60;65.20;;;;;;4917321;29;20141;-70
2023/03/23 12:12:11;;;;;;;4.07;0.90;;;20.60;65.10;;;;;;4916857;29;20103;-70
2023/03/23 12:14:45;;;;;;;4.93;0.98;;;20.70;65.10;;;;;;4900464;29;20048;-70
2023/03/23 12:17:30;;;;;;;4.57;1.05;;;20.70;65.00;;;;;;4900586;29;20059;-70
2023/03/23 12:20:14;;;;;;;4.32;1.27;;;20.70;65.00;;;;;;4916369;29;20147;-70
2023/03/23 12:22:50;;;;;;;4.43;0.75;;;20.70;65.00;;;;;;4936356;29;20136;-70
2023/03/23 12:25:39;;;;;;;4.32;1.48;;;20.70;65.00;;;;;;4931749;29;20052;-70
2023/03/23 12:28:20;;;;;;;5.05;1.48;;;20.60;65.00;;;;;;4881449;29;20089;-70
2023/03/23 12:30:56;;;;;;;4.70;1.73;;;20.60;65.10;;;;;;4892832;29;20056;-70
2023/03/23 12:33:33;;;;;;;4.80;1.58;;;20.60;65.10;;;;;;4900016;29;20056;-70
2023/03/23 12:36:10;;;;;;;4.80;1.40;;;20.50;65.00;;;;;;4917212;29;20071;-70
2023/03/23 12:39:00;;;;;;;4.13;1.00;;;20.60;65.00;;;;;;4916861;29;20107;-70
2023/03/23 12:41:32;;;;;;;3.78;1.30;;;20.60;65.00;;;;;;4910260;29;20051;-70
2023/03/23 12:44:03;;;;;;;5.38;1.58;;;20.60;64.90;;;;;;4932458;29;20059;-70
2023/03/23 12:47:03;;;;;;;4.70;0.70;;;20.70;64.90;;;;;;4897715;29;20410;-70
2023/03/23 12:49:36;;;;;;;4.50;1.27;;;20.70;64.80;;;;;;4897622;29;20071;-70
2023/03/23 12:52:12;;;;;;;4.55;1.27;;;20.80;64.70;;;;;;4897363;29;20060;-70
2023/03/23 12:54:44;;;;;;;4.57;1.23;;;20.80;64.60;;;;;;4897733;29;20052;-70
2023/03/23 12:57:17;;;;;;;5.35;1.42;;;20.90;64.50;;;;;;4896509;29;20494;-70
2023/03/23 12:59:50;;;;;;;3.50;0.60;;;20.90;64.60;;;;;;4894573;29;20096;-70
2023/03/23 13:02:23;;;;;;;2.70;1.20;;;20.80;64.50;;;;;;4930005;29;20052;-70
2023/03/23 13:04:56;;;;;;;6.15;1.45;;;20.90;64.50;;;;;;4935369;29;20059;-70